sensor_id;sensor_type;location;lat;lon;timestamp;pressure;altitude;pressure_sealevel;temperature;humidity
19600;BME280;9947;57.722;12.012;2023-03-22T00:00:44;99901.38;;;6.44;100.00
19600;BME280;9947;57.722;12.012;2023-03-22T00:03:11;99897.22;;;6.40;100.00
19600;BME280;9947;57.722;12.012;2023-03-22T00:05:38;99898.94;;;6.41;100.00
19600;BME280;9947;57.722;12.012;2023-03-22T00:08:05;99892.94;;;6.38;100.00
19600;BME280;9947;57.722;12.012;2023-03-22T00:10:35;99883.56;;;6.43;100.00
19600;BME280;9947;57.722;12.012;2023-03-22T00:13:03;99881.28;;;6.50;100.00
19600;BME280;9947;57.722;12.012;2023-03-22T00:15:31;99879.50;;;6.51;100.00
19600;BME280;9947;57.722;12.012;2023-03-22T00:17:59;99876.81;;;6.51;100.00
19600;BME280;9947;57.722;12.012;2023-03-22T00:20:26;99874.84;;;6.53;100.00
19600;BME280;9947;57.722;12.012;2023-03-22T00:23:01;99869.88;;;6.59;100.00
19600;BME280;9947;57.722;12.012;2023-03-22T00:25:31;99878.78;;;6.60;100.00
19600;BME280;9947;57.722;12.012;2023-03-22T00:27:57;99869.16;;;6.57;100.00
19600;BME280;9947;57.722;12.012;2023-03-22T00:30:24;99863.78;;;6.57;100.00
19600;BME280;9947;57.722;12.012;2023-03-22T00:32:52;99857.19;;;6.61;100.00
19600;BME280;9947;57.722;12.012;2023-03-22T00:35:19;99851.81;;;6.61;100.00
19600;BME280;9947;57.722;12.012;2023-03-22T00:37:46;99850.50;;;6.67;100.00
19600;BME280;9947;57.722;12.012;2023-03-22T00:40:16;99848.16;;;6.62;100.00
19600;BME280;9947;57.722;12.012;2023-03-22T00:42:43;99847.53;;;6.59;100.00
19600;BME280;9947;57.722;12.012;2023-03-22T00:45:11;99847.31;;;6.62;100.00
19600;BME280;9947;57.722;12.012;2023-03-22T00:47:38;99848.91;;;6.64;100.00
19600;BME280;9947;57.722;12.012;2023-03-22T00:50:07;99838.28;;;6.63;100.00
19600;BME280;9947;57.722;12.012;2023-03-22T00:52:35;99846.47;;;6.61;100.00
19600;BME280;9947;57.722;12.012;2023-03-22T00:55:02;99830.81;;;6.55;100.00
19600;BME280;9947;57.722;12.012;2023-03-22T00:57:35;99832.53;;;6.56;100.00
19600;BME280;9947;57.722;12.012;2023-03-22T01:00:04;99829.22;;;6.53;100.00
19600;BME280;9947;57.722;12.012;2023-03-22T01:02:40;99831.16;;;6.51;100.00
19600;BME280;9947;57.722;12.012;2023-03-22T01:05:09;99823.72;;;6.54;100.00
19600;BME280;9947;57.722;12.012;2023-03-22T01:07:40;99823.97;;;6.51;100.00
19600;BME280;9947;57.722;12.012;2023-03-22T01:10:07;99819.66;;;6.48;100.00
19600;BME280;9947;57.722;12.012;2023-03-22T01:12:34;99817.06;;;6.47;100.00
19600;BME280;9947;57.722;12.012;2023-03-22T01:15:01;99818.28;;;6.43;100.00
19600;BME280;9947;57.722;12.012;2023-03-22T01:17:28;99810.09;;;6.44;100.00
19600;BME280;9947;57.722;12.012;2023-03-22T01:19:58;99817.66;;;6.39;100.00
19600;BME280;9947;57.722;12.012;2023-03-22T01:22:26;99813.50;;;6.35;100.00
19600;BME280;9947;57.722;12.012;2023-03-22T01:24:53;99814.34;;;6.36;100.00
19600;BME280;9947;57.722;12.012;2023-03-22T01:27:20;99818.47;;;6.29;100.00
19600;BME280;9947;57.722;12.012;2023-03-22T01:29:49;99806.63;;;6.31;100.00
19600;BME280;9947;57.722;12.012;2023-03-22T01:32:16;99794.00;;;6.21;100.00
19600;BME280;9947;57.722;12.012;2023-03-22T01:34:42;99797.75;;;6.18;100.00
19600;BME280;9947;57.722;12.012;2023-03-22T01:37:09;99802.38;;;6.16;100.00
19600;BME280;9947;57.722;12.012;2023-03-22T01:39:38;99796.28;;;6.14;100.00
19600;BME280;9947;57.722;12.012;2023-03-22T01:42:12;99794.16;;;6.06;100.00
19600;BME280;9947;57.722;12.012;2023-03-22T01:44:43;99789.66;;;6.07;100.00
19600;BME280;9947;57.722;12.012;2023-03-22T01:47:11;99788.78;;;6.06;100.00
19600;BME280;9947;57.722;12.012;2023-03-22T01:49:44;99781.81;;;6.04;100.00
19600;BME280;9947;57.722;12.012;2023-03-22T01:52:13;99771.09;;;6.04;100.00
19600;BME280;9947;57.722;12.012;2023-03-22T01:54:44;99765.00;;;6.02;100.00
19600;BME280;9947;57.722;12.012;2023-03-22T01:57:12;99757.16;;;5.99;100.00
19600;BME280;9947;57.722;12.012;2023-03-22T01:59:45;99759.16;;;6.08;100.00
19600;BME280;9947;57.722;12.012;2023-03-22T02:02:15;99753.28;;;6.03;100.00
19600;BME280;9947;57.722;12.012;2023-03-22T02:04:47;99749.75;;;6.02;100.00
19600;BME280;9947;57.722;12.012;2023-03-22T02:07:16;99737.19;;;6.03;100.00
19600;BME280;9947;57.722;12.012;2023-03-22T02:09:51;99739.13;;;6.01;100.00
19600;BME280;9947;57.722;12.012;2023-03-22T02:12:25;99733.75;;;6.01;100.00
19600;BME280;9947;57.722;12.012;2023-03-22T02:15:04;99739.75;;;6.04;100.00
19600;BME280;9947;57.722;12.012;2023-03-22T02:17:37;99744.38;;;6.02;100.00
19600;BME280;9947;57.722;12.012;2023-03-22T02:26:40;99744.81;;;5.96;100.00
19600;BME280;9947;57.722;12.012;2023-03-22T02:29:13;99734.81;;;5.98;100.00
19600;BME280;9947;57.722;12.012;2023-03-22T02:38:19;99740.09;;;5.87;100.00
19600;BME280;9947;57.722;12.012;2023-03-22T02:40:57;99738.16;;;5.89;100.00
19600;BME280;9947;57.722;12.012;2023-03-22T02:43:34;99738.94;;;5.91;100.00
19600;BME280;9947;57.722;12.012;2023-03-22T02:46:06;99747.94;;;5.90;100.00
19600;BME280;9947;57.722;12.012;2023-03-22T02:48:39;99746.31;;;5.87;100.00
19600;BME280;9947;57.722;12.012;2023-03-22T02:51:11;99740.44;;;5.82;100.00
19600;BME280;9947;57.722;12.012;2023-03-22T02:53:43;99745.81;;;5.82;100.00
19600;BME280;9947;57.722;12.012;2023-03-22T02:56:17;99736.56;;;5.86;100.00
19600;BME280;9947;57.722;12.012;2023-03-22T02:58:47;99742.59;;;5.90;100.00
19600;BME280;9947;57.722;12.012;2023-03-22T03:01:20;99738.16;;;5.89;100.00
19600;BME280;9947;57.722;12.012;2023-03-22T03:03:49;99738.06;;;5.91;100.00
19600;BME280;9947;57.722;12.012;2023-03-22T03:06:22;99726.16;;;5.95;100.00
19600;BME280;9947;57.722;12.012;2023-03-22T03:08:52;99731.94;;;5.88;100.00
19600;BME280;9947;57.722;12.012;2023-03-22T03:11:24;99718.31;;;5.92;100.00
19600;BME280;9947;57.722;12.012;2023-03-22T03:13:51;99724.53;;;5.92;100.00
19600;BME280;9947;57.722;12.012;2023-03-22T03:16:20;99725.53;;;5.91;100.00
19600;BME280;9947;57.722;12.012;2023-03-22T03:18:57;99726.25;;;5.93;100.00
19600;BME280;9947;57.722;12.012;2023-03-22T03:21:36;99713.69;;;5.94;100.00
19600;BME280;9947;57.722;12.012;2023-03-22T03:24:18;99709.06;;;5.96;100.00
19600;BME280;9947;57.722;12.012;2023-03-22T03:26:54;99701.78;;;5.98;100.00
19600;BME280;9947;57.722;12.012;2023-03-22T03:29:28;99704.38;;;5.99;100.00
19600;BME280;9947;57.722;12.012;2023-03-22T03:32:04;99706.72;;;6.04;100.00
19600;BME280;9947;57.722;12.012;2023-03-22T03:34:34;99704.75;;;6.06;100.00
19600;BME280;9947;57.722;12.012;2023-03-22T03:37:10;99708.19;;;6.08;100.00
19600;BME280;9947;57.722;12.012;2023-03-22T03:39:43;99694.66;;;6.09;100.00
19600;BME280;9947;57.722;12.012;2023-03-22T03:42:14;99698.69;;;6.15;100.00
19600;BME280;9947;57.722;12.012;2023-03-22T03:44:42;99694.06;;;6.17;100.00
19600;BME280;9947;57.722;12.012;2023-03-22T03:47:09;99695.91;;;6.16;100.00
19600;BME280;9947;57.722;12.012;2023-03-22T03:49:37;99681.63;;;6.16;100.00
19600;BME280;9947;57.722;12.012;2023-03-22T03:52:04;99678.72;;;6.19;100.00
19600;BME280;9947;57.722;12.012;2023-03-22T03:54:31;99675.59;;;6.25;100.00
19600;BME280;9947;57.722;12.012;2023-03-22T03:56:58;99679.22;;;6.24;100.00
19600;BME280;9947;57.722;12.012;2023-03-22T03:59:27;99676.31;;;6.27;100.00
19600;BME280;9947;57.722;12.012;2023-03-22T04:02:00;99667.91;;;6.32;100.00
19600;BME280;9947;57.722;12.012;2023-03-22T04:04:27;99667.56;;;6.36;100.00
19600;BME280;9947;57.722;12.012;2023-03-22T04:06:55;99665.00;;;6.35;100.00
19600;BME280;9947;57.722;12.012;2023-03-22T04:09:30;99670.97;;;6.38;100.00
19600;BME280;9947;57.722;12.012;2023-03-22T04:12:00;99668.31;;;6.38;100.00
19600;BME280;9947;57.722;12.012;2023-03-22T04:14:28;99659.03;;;6.42;100.00
19600;BME280;9947;57.722;12.012;2023-03-22T04:16:55;99655.63;;;6.40;100.00
19600;BME280;9947;57.722;12.012;2023-03-22T04:19:22;99660.97;;;6.40;100.00
19600;BME280;9947;57.722;12.012;2023-03-22T04:21:49;99661.34;;;6.47;100.00
19600;BME280;9947;57.722;12.012;2023-03-22T04:24:17;99653.53;;;6.44;100.00
19600;BME280;9947;57.722;12.012;2023-03-22T04:26:44;99649.75;;;6.46;100.00
19600;BME280;9947;57.722;12.012;2023-03-22T04:29:11;99646.97;;;6.48;100.00
19600;BME280;9947;57.722;12.012;2023-03-22T04:31:39;99652.84;;;6.53;100.00
19600;BME280;9947;57.722;12.012;2023-03-22T04:34:06;99642.25;;;6.52;100.00
19600;BME280;9947;57.722;12.012;2023-03-22T04:36:35;99631.94;;;6.45;100.00
19600;BME280;9947;57.722;12.012;2023-03-22T04:39:09;99628.66;;;6.42;100.00
19600;BME280;9947;57.722;12.012;2023-03-22T04:41:36;99640.25;;;6.42;100.00
19600;BME280;9947;57.722;12.012;2023-03-22T04:44:04;99636.59;;;6.43;100.00
19600;BME280;9947;57.722;12.012;2023-03-22T04:46:33;99628.66;;;6.42;100.00
19600;BME280;9947;57.722;12.012;2023-03-22T04:49:04;99633.91;;;6.43;100.00
19600;BME280;9947;57.722;12.012;2023-03-22T04:51:31;99638.41;;;6.43;100.00
19600;BME280;9947;57.722;12.012;2023-03-22T04:53:58;99632.06;;;6.44;100.00
19600;BME280;9947;57.722;12.012;2023-03-22T04:56:25;99625.59;;;6.46;100.00
19600;BME280;9947;57.722;12.012;2023-03-22T04:58:59;99631.72;;;6.48;100.00
19600;BME280;9947;57.722;12.012;2023-03-22T05:01:26;99635.16;;;6.51;100.00
19600;BME280;9947;57.722;12.012;2023-03-22T05:03:53;99643.78;;;6.43;100.00
19600;BME280;9947;57.722;12.012;2023-03-22T05:06:21;99632.81;;;6.46;100.00
19600;BME280;9947;57.722;12.012;2023-03-22T05:08:48;99639.28;;;6.43;100.00
19600;BME280;9947;57.722;12.012;2023-03-22T05:11:18;99635.84;;;6.41;100.00
19600;BME280;9947;57.722;12.012;2023-03-22T05:13:46;99631.69;;;6.37;100.00
19600;BME280;9947;57.722;12.012;2023-03-22T05:16:13;99628.88;;;6.39;100.00
19600;BME280;9947;57.722;12.012;2023-03-22T05:18:40;99633.66;;;6.35;100.00
19600;BME280;9947;57.722;12.012;2023-03-22T05:21:10;99629.00;;;6.37;100.00
19600;BME280;9947;57.722;12.012;2023-03-22T05:23:39;99618.88;;;6.41;100.00
19600;BME280;9947;57.722;12.012;2023-03-22T05:26:07;99620.47;;;6.32;100.00
19600;BME280;9947;57.722;12.012;2023-03-22T05:28:35;99614.00;;;6.35;100.00
19600;BME280;9947;57.722;12.012;2023-03-22T05:31:03;99611.78;;;6.29;100.00
19600;BME280;9947;57.722;12.012;2023-03-22T05:33:30;99612.13;;;6.24;100.00
19600;BME280;9947;57.722;12.012;2023-03-22T05:35:59;99611.25;;;6.24;100.00
19600;BME280;9947;57.722;12.012;2023-03-22T05:38:26;99607.00;;;6.21;100.00
19600;BME280;9947;57.722;12.012;2023-03-22T05:40:55;99612.66;;;6.29;100.00
19600;BME280;9947;57.722;12.012;2023-03-22T05:43:21;99596.31;;;6.32;100.00
19600;BME280;9947;57.722;12.012;2023-03-22T05:45:48;99599.69;;;6.23;100.00
19600;BME280;9947;57.722;12.012;2023-03-22T05:48:15;99596.53;;;6.29;100.00
19600;BME280;9947;57.722;12.012;2023-03-22T05:50:42;99592.88;;;6.30;100.00
19600;BME280;9947;57.722;12.012;2023-03-22T05:53:09;99599.22;;;6.29;100.00
19600;BME280;9947;57.722;12.012;2023-03-22T05:55:37;99589.97;;;6.33;100.00
19600;BME280;9947;57.722;12.012;2023-03-22T05:58:11;99594.00;;;6.39;100.00
19600;BME280;9947;57.722;12.012;2023-03-22T06:00:43;99579.22;;;6.33;100.00
19600;BME280;9947;57.722;12.012;2023-03-22T06:03:12;99577.03;;;6.38;100.00
19600;BME280;9947;57.722;12.012;2023-03-22T06:05:40;99584.13;;;6.39;100.00
19600;BME280;9947;57.722;12.012;2023-03-22T06:08:07;99574.97;;;6.42;100.00
19600;BME280;9947;57.722;12.012;2023-03-22T06:10:33;99571.22;;;6.56;100.00
19600;BME280;9947;57.722;12.012;2023-03-22T06:13:00;99561.94;;;6.60;100.00
19600;BME280;9947;57.722;12.012;2023-03-22T06:15:28;99555.59;;;6.61;100.00
19600;BME280;9947;57.722;12.012;2023-03-22T06:17:55;99560.72;;;6.64;100.00
19600;BME280;9947;57.722;12.012;2023-03-22T06:20:22;99566.94;;;6.75;100.00
19600;BME280;9947;57.722;12.012;2023-03-22T06:22:50;99554.59;;;6.73;100.00
19600;BME280;9947;57.722;12.012;2023-03-22T06:25:25;99553.41;;;6.77;100.00
19600;BME280;9947;57.722;12.012;2023-03-22T06:27:51;99540.34;;;6.84;100.00
19600;BME280;9947;57.722;12.012;2023-03-22T06:30:18;99542.78;;;6.87;100.00
19600;BME280;9947;57.722;12.012;2023-03-22T06:32:47;99539.47;;;6.83;100.00
19600;BME280;9947;57.722;12.012;2023-03-22T06:35:14;99549.72;;;6.89;100.00
19600;BME280;9947;57.722;12.012;2023-03-22T06:37:45;99545.81;;;6.93;100.00
19600;BME280;9947;57.722;12.012;2023-03-22T06:40:13;99544.44;;;6.99;100.00
19600;BME280;9947;57.722;12.012;2023-03-22T06:42:40;99540.44;;;6.93;100.00
19600;BME280;9947;57.722;12.012;2023-03-22T06:45:08;99544.09;;;7.03;100.00
19600;BME280;9947;57.722;12.012;2023-03-22T06:47:35;99539.94;;;6.99;100.00
19600;BME280;9947;57.722;12.012;2023-03-22T06:50:03;99540.19;;;7.07;100.00
19600;BME280;9947;57.722;12.012;2023-03-22T06:52:30;99530.88;;;7.00;100.00
19600;BME280;9947;57.722;12.012;2023-03-22T06:54:57;99539.81;;;7.01;100.00
19600;BME280;9947;57.722;12.012;2023-03-22T06:57:30;99538.81;;;7.02;100.00
19600;BME280;9947;57.722;12.012;2023-03-22T06:59:57;99535.19;;;7.03;100.00
19600;BME280;9947;57.722;12.012;2023-03-22T07:02:24;99541.16;;;7.06;100.00
19600;BME280;9947;57.722;12.012;2023-03-22T07:04:51;99533.31;;;7.15;100.00
19600;BME280;9947;57.722;12.012;2023-03-22T07:07:19;99537.00;;;7.14;100.00
19600;BME280;9947;57.722;12.012;2023-03-22T07:09:46;99535.75;;;7.18;100.00
19600;BME280;9947;57.722;12.012;2023-03-22T07:12:13;99531.09;;;7.20;100.00
19600;BME280;9947;57.722;12.012;2023-03-22T07:14:40;99527.44;;;7.21;100.00
19600;BME280;9947;57.722;12.012;2023-03-22T07:17:07;99524.63;;;7.33;100.00
19600;BME280;9947;57.722;12.012;2023-03-22T07:19:36;99540.75;;;7.33;100.00
19600;BME280;9947;57.722;12.012;2023-03-22T07:22:02;99527.44;;;7.32;100.00
19600;BME280;9947;57.722;12.012;2023-03-22T07:24:31;99525.94;;;7.28;100.00
19600;BME280;9947;57.722;12.012;2023-03-22T07:26:57;99518.25;;;7.34;100.00
19600;BME280;9947;57.722;12.012;2023-03-22T07:29:31;99509.69;;;7.40;100.00
19600;BME280;9947;57.722;12.012;2023-03-22T07:31:58;99508.03;;;7.49;100.00
19600;BME280;9947;57.722;12.012;2023-03-22T07:34:25;99510.47;;;7.52;100.00
19600;BME280;9947;57.722;12.012;2023-03-22T07:36:52;99508.19;;;7.48;100.00
19600;BME280;9947;57.722;12.012;2023-03-22T07:39:21;99495.19;;;7.53;100.00
19600;BME280;9947;57.722;12.012;2023-03-22T07:41:50;99497.03;;;7.52;100.00
19600;BME280;9947;57.722;12.012;2023-03-22T07:44:20;99499.00;;;7.50;100.00
19600;BME280;9947;57.722;12.012;2023-03-22T07:46:47;99500.09;;;7.59;100.00
19600;BME280;9947;57.722;12.012;2023-03-22T07:49:16;99500.94;;;7.59;100.00
19600;BME280;9947;57.722;12.012;2023-03-22T07:51:43;99511.69;;;7.59;100.00
19600;BME280;9947;57.722;12.012;2023-03-22T07:54:16;99499.09;;;7.60;100.00
19600;BME280;9947;57.722;12.012;2023-03-22T07:56:45;99496.75;;;7.66;100.00
19600;BME280;9947;57.722;12.012;2023-03-22T07:59:14;99509.25;;;7.56;100.00
19600;BME280;9947;57.722;12.012;2023-03-22T08:01:42;99502.91;;;7.57;100.00
19600;BME280;9947;57.722;12.012;2023-03-22T08:04:09;99513.03;;;7.54;100.00
19600;BME280;9947;57.722;12.012;2023-03-22T08:06:36;99499.59;;;7.54;100.00
19600;BME280;9947;57.722;12.012;2023-03-22T08:09:04;99496.81;;;7.44;100.00
19600;BME280;9947;57.722;12.012;2023-03-22T08:11:32;99491.72;;;7.41;100.00
19600;BME280;9947;57.722;12.012;2023-03-22T08:13:59;99490.84;;;7.40;100.00
19600;BME280;9947;57.722;12.012;2023-03-22T08:16:27;99490.19;;;7.48;100.00
19600;BME280;9947;57.722;12.012;2023-03-22T08:18:54;99495.94;;;7.55;100.00
19600;BME280;9947;57.722;12.012;2023-03-22T08:21:21;99491.16;;;7.58;100.00
19600;BME280;9947;57.722;12.012;2023-03-22T08:23:48;99486.25;;;7.63;100.00
19600;BME280;9947;57.722;12.012;2023-03-22T08:26:15;99489.59;;;7.56;100.00
19600;BME280;9947;57.722;12.012;2023-03-22T08:28:43;99495.06;;;7.54;100.00
19600;BME280;9947;57.722;12.012;2023-03-22T08:31:17;99487.78;;;7.45;100.00
19600;BME280;9947;57.722;12.012;2023-03-22T08:33:46;99488.28;;;7.39;100.00
19600;BME280;9947;57.722;12.012;2023-03-22T08:36:15;99482.91;;;7.39;100.00
19600;BME280;9947;57.722;12.012;2023-03-22T08:38:43;99478.06;;;7.33;100.00
19600;BME280;9947;57.722;12.012;2023-03-22T08:41:11;99483.44;;;7.33;100.00
19600;BME280;9947;57.722;12.012;2023-03-22T08:43:38;99485.59;;;7.39;100.00
19600;BME280;9947;57.722;12.012;2023-03-22T08:46:05;99475.84;;;7.38;100.00
19600;BME280;9947;57.722;12.012;2023-03-22T08:48:32;99477.88;;;7.46;100.00
19600;BME280;9947;57.722;12.012;2023-03-22T08:51:01;99479.25;;;7.40;100.00
19600;BME280;9947;57.722;12.012;2023-03-22T08:53:38;99481.47;;;7.35;100.00
19600;BME280;9947;57.722;12.012;2023-03-22T08:56:06;99482.31;;;7.35;100.00
19600;BME280;9947;57.722;12.012;2023-03-22T08:58:33;99472.69;;;7.33;100.00
19600;BME280;9947;57.722;12.012;2023-03-22T09:01:01;99462.84;;;7.43;100.00
19600;BME280;9947;57.722;12.012;2023-03-22T09:03:27;99466.06;;;7.37;100.00
19600;BME280;9947;57.722;12.012;2023-03-22T09:05:54;99461.94;;;7.54;100.00
19600;BME280;9947;57.722;12.012;2023-03-22T09:08:26;99456.09;;;7.49;100.00
19600;BME280;9947;57.722;12.012;2023-03-22T09:10:53;99458.47;;;7.42;100.00
19600;BME280;9947;57.722;12.012;2023-03-22T09:13:20;99453.59;;;7.36;100.00
19600;BME280;9947;57.722;12.012;2023-03-22T09:15:47;99461.69;;;7.25;100.00
19600;BME280;9947;57.722;12.012;2023-03-22T09:18:14;99452.91;;;7.23;100.00
19600;BME280;9947;57.722;12.012;2023-03-22T09:20:41;99442.53;;;7.18;100.00
19600;BME280;9947;57.722;12.012;2023-03-22T09:23:09;99452.09;;;7.11;100.00
19600;BME280;9947;57.722;12.012;2023-03-22T09:25:37;99440.75;;;7.07;100.00
19600;BME280;9947;57.722;12.012;2023-03-22T09:28:04;99425.13;;;7.01;100.00
19600;BME280;9947;57.722;12.012;2023-03-22T09:30:31;99433.09;;;6.92;100.00
19600;BME280;9947;57.722;12.012;2023-03-22T09:33:07;99432.34;;;7.01;100.00
19600;BME280;9947;57.722;12.012;2023-03-22T09:35:39;99430.72;;;7.09;100.00
19600;BME280;9947;57.722;12.012;2023-03-22T09:38:07;99429.91;;;6.98;100.00
19600;BME280;9947;57.722;12.012;2023-03-22T09:40:38;99423.34;;;6.91;100.00
19600;BME280;9947;57.722;12.012;2023-03-22T09:43:11;99420.38;;;6.94;100.00
19600;BME280;9947;57.722;12.012;2023-03-22T09:45:44;99423.81;;;6.96;100.00
19600;BME280;9947;57.722;12.012;2023-03-22T09:48:16;99420.38;;;6.94;100.00
19600;BME280;9947;57.722;12.012;2023-03-22T09:50:59;99410.38;;;6.96;100.00
19600;BME280;9947;57.722;12.012;2023-03-22T09:53:40;99417.69;;;6.94;100.00
19600;BME280;9947;57.722;12.012;2023-03-22T09:56:13;99419.53;;;7.04;100.00
19600;BME280;9947;57.722;12.012;2023-03-22T09:58:47;99410.41;;;7.17;100.00
19600;BME280;9947;57.722;12.012;2023-03-22T10:01:24;99413.16;;;7.05;100.00
19600;BME280;9947;57.722;12.012;2023-03-22T10:04:25;99406.22;;;7.03;100.00
19600;BME280;9947;57.722;12.012;2023-03-22T10:07:04;99408.00;;;7.14;100.00
19600;BME280;9947;57.722;12.012;2023-03-22T10:09:37;99406.94;;;7.26;100.00
19600;BME280;9947;57.722;12.012;2023-03-22T10:12:15;99398.31;;;7.22;100.00
19600;BME280;9947;57.722;12.012;2023-03-22T10:14:49;99392.38;;;7.39;100.00
19600;BME280;9947;57.722;12.012;2023-03-22T10:17:25;99393.81;;;7.43;100.00
19600;BME280;9947;57.722;12.012;2023-03-22T10:19:58;99381.06;;;7.46;100.00
19600;BME280;9947;57.722;12.012;2023-03-22T10:22:29;99397.66;;;7.51;100.00
19600;BME280;9947;57.722;12.012;2023-03-22T10:24:59;99391.78;;;7.57;100.00
19600;BME280;9947;57.722;12.012;2023-03-22T10:27:29;99387.41;;;7.56;100.00
19600;BME280;9947;57.722;12.012;2023-03-22T10:30:00;99390.53;;;7.61;100.00
19600;BME280;9947;57.722;12.012;2023-03-22T10:32:33;99390.41;;;7.62;100.00
19600;BME280;9947;57.722;12.012;2023-03-22T10:35:01;99393.59;;;7.77;100.00
19600;BME280;9947;57.722;12.012;2023-03-22T10:37:36;99380.00;;;7.79;100.00
19600;BME280;9947;57.722;12.012;2023-03-22T10:40:06;99378.81;;;7.92;100.00
19600;BME280;9947;57.722;12.012;2023-03-22T10:42:37;99376.22;;;7.81;100.00
19600;BME280;9947;57.722;12.012;2023-03-22T10:45:07;99375.56;;;7.89;100.00
19600;BME280;9947;57.722;12.012;2023-03-22T10:47:40;99377.25;;;8.20;100.00
19600;BME280;9947;57.722;12.012;2023-03-22T10:50:12;99371.59;;;8.23;100.00
19600;BME280;9947;57.722;12.012;2023-03-22T10:52:45;99371.91;;;7.99;100.00
19600;BME280;9947;57.722;12.012;2023-03-22T10:55:15;99353.31;;;7.87;100.00
19600;BME280;9947;57.722;12.012;2023-03-22T10:57:48;99362.50;;;8.15;100.00
19600;BME280;9947;57.722;12.012;2023-03-22T11:00:17;99365.75;;;8.18;100.00
19600;BME280;9947;57.722;12.012;2023-03-22T11:02:50;99351.00;;;8.33;100.00
19600;BME280;9947;57.722;12.012;2023-03-22T11:05:20;99356.84;;;8.27;100.00
19600;BME280;9947;57.722;12.012;2023-03-22T11:07:48;99357.72;;;8.28;100.00
19600;BME280;9947;57.722;12.012;2023-03-22T11:10:33;99343.13;;;8.30;100.00
19600;BME280;9947;57.722;12.012;2023-03-22T11:13:16;99347.31;;;8.44;100.00
19600;BME280;9947;57.722;12.012;2023-03-22T11:15:54;99355.69;;;8.41;100.00
19600;BME280;9947;57.722;12.012;2023-03-22T11:18:24;99350.06;;;8.23;100.00
19600;BME280;9947;57.722;12.012;2023-03-22T11:20:58;99341.63;;;8.38;100.00
19600;BME280;9947;57.722;12.012;2023-03-22T11:23:26;99338.41;;;8.13;100.00
19600;BME280;9947;57.722;12.012;2023-03-22T11:26:06;99343.53;;;8.16;100.00
19600;BME280;9947;57.722;12.012;2023-03-22T11:28:41;99332.34;;;8.21;100.00
19600;BME280;9947;57.722;12.012;2023-03-22T11:31:11;99331.75;;;8.08;100.00
19600;BME280;9947;57.722;12.012;2023-03-22T11:33:52;99347.13;;;8.05;100.00
19600;BME280;9947;57.722;12.012;2023-03-22T11:36:20;99342.81;;;8.14;100.00
19600;BME280;9947;57.722;12.012;2023-03-22T11:38:47;99330.00;;;8.07;100.00
19600;BME280;9947;57.722;12.012;2023-03-22T11:41:21;99325.84;;;7.93;100.00
19600;BME280;9947;57.722;12.012;2023-03-22T11:43:57;99332.94;;;7.94;100.00
19600;BME280;9947;57.722;12.012;2023-03-22T11:46:28;99331.84;;;7.76;100.00
19600;BME280;9947;57.722;12.012;2023-03-22T11:48:57;99324.69;;;7.86;100.00
19600;BME280;9947;57.722;12.012;2023-03-22T11:51:27;99325.59;;;7.96;100.00
19600;BME280;9947;57.722;12.012;2023-03-22T11:54:00;99315.09;;;7.93;100.00
19600;BME280;9947;57.722;12.012;2023-03-22T11:56:29;99309.28;;;7.88;100.00
19600;BME280;9947;57.722;12.012;2023-03-22T11:59:03;99318.28;;;7.77;100.00
19600;BME280;9947;57.722;12.012;2023-03-22T12:01:37;99307.34;;;7.69;100.00
19600;BME280;9947;57.722;12.012;2023-03-22T12:04:07;99308.19;;;7.69;100.00
19600;BME280;9947;57.722;12.012;2023-03-22T12:06:37;99308.50;;;7.76;100.00
19600;BME280;9947;57.722;12.012;2023-03-22T12:09:11;99303.94;;;7.67;100.00
19600;BME280;9947;57.722;12.012;2023-03-22T12:11:46;99309.34;;;7.77;100.00
19600;BME280;9947;57.722;12.012;2023-03-22T12:14:21;99300.91;;;7.81;100.00
19600;BME280;9947;57.722;12.012;2023-03-22T12:16:53;99291.63;;;7.74;100.00
19600;BME280;9947;57.722;12.012;2023-03-22T12:19:40;99308.59;;;7.65;100.00
19600;BME280;9947;57.722;12.012;2023-03-22T12:22:11;99293.16;;;7.67;100.00
19600;BME280;9947;57.722;12.012;2023-03-22T12:24:39;99294.44;;;7.63;100.00
19600;BME280;9947;57.722;12.012;2023-03-22T12:27:12;99295.72;;;7.68;100.00
19600;BME280;9947;57.722;12.012;2023-03-22T12:29:45;99293.75;;;7.70;100.00
19600;BME280;9947;57.722;12.012;2023-03-22T12:32:19;99282.69;;;7.64;100.00
19600;BME280;9947;57.722;12.012;2023-03-22T12:34:50;99293.34;;;7.75;100.00
19600;BME280;9947;57.722;12.012;2023-03-22T12:37:26;99279.88;;;7.65;100.00
19600;BME280;9947;57.722;12.012;2023-03-22T12:39:57;99280.28;;;7.61;100.00
19600;BME280;9947;57.722;12.012;2023-03-22T12:42:30;99274.56;;;7.54;100.00
19600;BME280;9947;57.722;12.012;2023-03-22T12:45:13;99269.19;;;7.54;100.00
19600;BME280;9947;57.722;12.012;2023-03-22T12:47:45;99269.44;;;7.51;100.00
19600;BME280;9947;57.722;12.012;2023-03-22T12:50:17;99264.53;;;7.56;100.00
19600;BME280;9947;57.722;12.012;2023-03-22T12:52:52;99253.09;;;7.64;100.00
19600;BME280;9947;57.722;12.012;2023-03-22T12:55:29;99239.97;;;7.70;100.00
19600;BME280;9947;57.722;12.012;2023-03-22T12:57:58;99243.22;;;7.74;100.00
19600;BME280;9947;57.722;12.012;2023-03-22T13:00:31;99239.41;;;7.77;100.00
19600;BME280;9947;57.722;12.012;2023-03-22T13:03:02;99230.75;;;7.73;100.00
19600;BME280;9947;57.722;12.012;2023-03-22T13:05:33;99225.81;;;7.78;100.00
19600;BME280;9947;57.722;12.012;2023-03-22T13:08:01;99215.66;;;7.82;100.00
19600;BME280;9947;57.722;12.012;2023-03-22T13:10:59;99212.22;;;7.80;100.00
19600;BME280;9947;57.722;12.012;2023-03-22T13:13:40;99209.69;;;7.78;100.00
19600;BME280;9947;57.722;12.012;2023-03-22T13:16:17;99208.59;;;7.81;100.00
19600;BME280;9947;57.722;12.012;2023-03-22T13:19:24;99203.59;;;7.76;100.00
19600;BME280;9947;57.722;12.012;2023-03-22T13:22:14;99192.44;;;7.81;100.00
19600;BME280;9947;57.722;12.012;2023-03-22T13:25:11;99185.94;;;7.83;100.00
19600;BME280;9947;57.722;12.012;2023-03-22T13:27:41;99177.97;;;7.72;100.00
19600;BME280;9947;57.722;12.012;2023-03-22T13:30:15;99178.53;;;7.76;100.00